Decoded Metar for LCLK (LARNACA in CYPRUS) (IATA:LCA) | Meteo·Mobile Aviation Weather
aviador You're here:

LCLK Decoded Metar

LARNACA in CYPRUS
Report Time2018-11-12 17:30:00
UTC Time2018-11-12 17:36:18
Flight Rules vfr VFR
Wind350° at 05 kt
W.Decomp.*RWY 04: 2.9 kt HW 4 kt LCW
W.Rank350° ranks 12
Current wind is below 350° avg. (6.5)
Visibility9999 m
Phenomena:N/A
Clouds:N/A
Expected CloudBase > 3,600 ft AGL from Temp-Dew spread
CeilingNone
Temp19°C (ISA +4)
Dew Point10°C (56% RH)
AAT17.3°C
QNH1020 hPa
Density Alt407 ft
Elevation7 ft
Report Wrong Elevation
Raw Report
METAR LCLK 121730Z 35005KT 300V030 CAVOK 19/10 Q1020 NOSIG=

Extra information for LCLK:More info

Metar Taf Metar & Taf Last 4 Metars F.Rules Stats Wind Profile Meteogram Temp Stats Airport Information Weather charts Add Link Nearby VenuesMetar ALERT Operation Metar Decoded Social comments